createdAt,value
2023-02-13T00:00:12.564Z,9.00
2023-02-13T00:02:39.051Z,8.77
2023-02-13T00:05:05.728Z,8.75
2023-02-13T00:07:32.153Z,8.63
2023-02-13T00:09:58.496Z,7.97
2023-02-13T00:12:24.979Z,8.90
2023-02-13T00:14:51.431Z,9.05
2023-02-13T00:17:17.808Z,9.40
2023-02-13T00:19:44.248Z,9.30
2023-02-13T00:22:10.664Z,9.73
2023-02-13T00:24:37.118Z,9.17
2023-02-13T00:27:03.499Z,9.60
2023-02-13T00:29:29.900Z,9.90
2023-02-13T00:31:56.379Z,8.80
2023-02-13T00:34:22.955Z,9.40
2023-02-13T00:36:49.348Z,9.47
2023-02-13T00:39:15.715Z,9.27
2023-02-13T00:41:42.088Z,9.45
2023-02-13T00:44:09.604Z,9.48
2023-02-13T00:46:36.498Z,9.52
2023-02-13T00:49:03.560Z,9.70
2023-02-13T00:51:30.342Z,9.02
2023-02-13T00:53:56.974Z,9.52
2023-02-13T00:56:23.402Z,8.70
2023-02-13T00:58:49.819Z,9.18
2023-02-13T01:01:16.292Z,9.50
2023-02-13T01:03:42.882Z,9.77
2023-02-13T01:06:09.321Z,9.48
2023-02-13T01:08:39.162Z,9.35
2023-02-13T01:11:06.461Z,9.32
2023-02-13T01:13:33.511Z,9.50
2023-02-13T01:16:00.233Z,9.85
2023-02-13T01:18:26.629Z,9.77
2023-02-13T01:20:58.061Z,9.50
2023-02-13T01:23:24.559Z,8.95
2023-02-13T01:25:51.661Z,8.93
2023-02-13T01:28:18.298Z,9.38
2023-02-13T01:30:44.778Z,9.52
2023-02-13T01:33:11.813Z,9.55
2023-02-13T01:35:41.083Z,9.50
2023-02-13T01:38:07.477Z,9.17
2023-02-13T01:40:33.898Z,9.30
2023-02-13T01:43:00.365Z,9.65
2023-02-13T01:45:29.349Z,9.55
2023-02-13T01:48:16.302Z,9.02
2023-02-13T01:50:51.356Z,9.60
2023-02-13T01:53:31.416Z,9.25
2023-02-13T01:56:29.564Z,9.25
2023-02-13T01:59:01.383Z,9.55
2023-02-13T02:01:28.920Z,9.05
2023-02-13T02:04:10.723Z,10.00
2023-02-13T02:06:47.132Z,9.00
2023-02-13T02:09:25.015Z,9.45
2023-02-13T02:11:56.048Z,10.00
2023-02-13T02:14:22.589Z,9.95
2023-02-13T02:16:48.978Z,9.20
2023-02-13T02:19:33.759Z,9.98
2023-02-13T02:22:41.607Z,9.25
2023-02-13T02:25:45.230Z,9.63
2023-02-13T02:28:26.420Z,10.10
2023-02-13T02:31:17.355Z,9.60
2023-02-13T02:33:52.695Z,10.23
2023-02-13T02:36:22.098Z,9.23
2023-02-13T02:38:57.636Z,9.32
2023-02-13T02:41:41.937Z,10.18
2023-02-13T02:44:38.089Z,9.00
2023-02-13T02:47:42.035Z,9.15
2023-02-13T02:50:23.375Z,9.32
2023-02-13T02:52:56.766Z,8.70
2023-02-13T02:55:47.975Z,9.68
2023-02-13T02:58:56.373Z,10.07
2023-02-13T03:01:45.620Z,9.00
2023-02-13T03:04:38.012Z,9.52
2023-02-13T03:07:09.328Z,9.20
2023-02-13T03:09:59.324Z,9.07
2023-02-13T03:12:55.171Z,10.33
2023-02-13T03:15:23.607Z,8.77
2023-02-13T03:18:08.318Z,9.98
2023-02-13T03:21:15.304Z,8.75
2023-02-13T03:24:26.005Z,9.23
2023-02-13T03:27:42.480Z,9.17
2023-02-13T03:30:22.495Z,8.98
2023-02-13T03:33:13.005Z,9.32
2023-02-13T03:36:12.202Z,9.68
2023-02-13T03:38:58.143Z,9.00
2023-02-13T03:41:38.550Z,9.40
2023-02-13T03:44:08.007Z,9.75
2023-02-13T03:46:39.097Z,9.73
2023-02-13T03:49:28.859Z,9.68
2023-02-13T03:52:05.348Z,9.43
2023-02-13T03:54:57.128Z,10.77
2023-02-13T03:57:43.769Z,10.02
2023-02-13T04:00:13.520Z,9.50
2023-02-13T04:02:52.761Z,9.55
2023-02-13T04:05:24.682Z,9.85
2023-02-13T04:07:51.250Z,9.77
2023-02-13T04:10:19.183Z,9.63
2023-02-13T04:12:51.247Z,10.02
2023-02-13T04:15:25.950Z,10.02
2023-02-13T04:17:58.869Z,9.95
2023-02-13T04:20:28.602Z,9.30
2023-02-13T04:22:54.949Z,9.60
2023-02-13T04:25:21.370Z,10.20
2023-02-13T04:27:47.811Z,10.13
2023-02-13T04:30:14.600Z,9.98
2023-02-13T04:32:40.973Z,10.63
2023-02-13T04:35:07.867Z,9.68
2023-02-13T04:37:34.227Z,9.52
2023-02-13T04:40:00.596Z,10.25
2023-02-13T04:42:26.958Z,9.82
2023-02-13T04:44:53.325Z,9.67
2023-02-13T04:47:19.690Z,10.55
2023-02-13T04:49:46.057Z,9.55
2023-02-13T04:52:15.192Z,10.00
2023-02-13T04:54:41.768Z,8.90
2023-02-13T04:57:08.153Z,9.40
2023-02-13T04:59:34.515Z,9.55
2023-02-13T05:02:00.971Z,9.65
2023-02-13T05:04:28.843Z,9.63
2023-02-13T05:06:55.322Z,10.07
2023-02-13T05:09:21.766Z,10.20
2023-02-13T05:11:51.820Z,9.65
2023-02-13T05:14:18.460Z,10.15
2023-02-13T05:16:44.990Z,9.45
2023-02-13T05:19:11.518Z,10.27
2023-02-13T05:21:56.389Z,9.73
2023-02-13T05:24:22.830Z,10.30
2023-02-13T05:26:49.252Z,10.88
2023-02-13T05:29:18.629Z,10.20
2023-02-13T05:31:56.472Z,10.07
2023-02-13T05:34:25.642Z,9.53
2023-02-13T05:36:52.071Z,10.25
2023-02-13T05:39:18.824Z,10.55
2023-02-13T05:41:46.444Z,10.05
2023-02-13T05:44:13.459Z,10.85
2023-02-13T05:46:41.243Z,9.37
2023-02-13T05:49:09.245Z,10.20
2023-02-13T05:51:36.400Z,9.88
2023-02-13T05:54:03.148Z,9.80
2023-02-13T05:56:29.633Z,10.27
2023-02-13T05:58:57.133Z,9.63
2023-02-13T06:01:24.657Z,9.95
2023-02-13T06:03:51.397Z,10.13
2023-02-13T06:06:17.939Z,10.85
2023-02-13T06:08:44.575Z,10.82
2023-02-13T06:11:13.349Z,10.93
2023-02-13T06:13:42.310Z,10.60
2023-02-13T06:16:09.793Z,9.77
2023-02-13T06:18:36.530Z,10.98
2023-02-13T06:21:03.643Z,10.00
2023-02-13T06:23:31.144Z,10.30
2023-02-13T06:26:02.240Z,10.52
2023-02-13T06:28:28.614Z,10.77
2023-02-13T06:30:55.394Z,11.05
2023-02-13T06:33:22.048Z,10.73
2023-02-13T06:35:48.407Z,10.73
2023-02-13T06:38:14.791Z,10.68
2023-02-13T06:40:41.207Z,10.77
2023-02-13T06:43:07.664Z,10.38
2023-02-13T06:45:34.076Z,10.30
2023-02-13T06:48:00.415Z,10.73
2023-02-13T06:50:26.833Z,10.45
2023-02-13T06:52:53.237Z,10.25
2023-02-13T06:55:20.720Z,10.00
2023-02-13T06:57:47.504Z,10.55
2023-02-13T07:00:15.959Z,9.87
2023-02-13T07:02:43.980Z,10.75
2023-02-13T07:05:11.407Z,11.02
2023-02-13T07:07:40.458Z,10.57
2023-02-13T07:10:09.251Z,10.15
2023-02-13T07:12:36.668Z,10.47
2023-02-13T07:15:04.869Z,10.73
2023-02-13T07:17:31.566Z,10.50
2023-02-13T07:19:57.948Z,10.75
2023-02-13T07:22:24.329Z,10.82
2023-02-13T07:24:50.689Z,9.80
2023-02-13T07:27:17.179Z,9.90
2023-02-13T07:29:43.556Z,10.65
2023-02-13T07:32:10.210Z,10.93
2023-02-13T07:34:36.601Z,10.57
2023-02-13T07:37:03.004Z,10.20
2023-02-13T07:39:31.476Z,10.25
2023-02-13T07:41:57.834Z,11.60
2023-02-13T07:44:24.235Z,11.20
2023-02-13T07:46:50.670Z,10.38
2023-02-13T07:49:17.049Z,10.87
2023-02-13T07:51:43.401Z,11.02
2023-02-13T07:54:09.798Z,11.30
2023-02-13T07:56:36.157Z,11.50
2023-02-13T07:59:02.527Z,11.77
2023-02-13T08:01:28.952Z,10.97
2023-02-13T08:03:55.401Z,11.63
2023-02-13T08:06:22.424Z,11.50
2023-02-13T08:08:48.775Z,11.77
2023-02-13T08:11:46.758Z,11.43
2023-02-13T08:14:13.136Z,11.10
2023-02-13T08:16:39.582Z,11.10
2023-02-13T08:19:05.985Z,11.88
2023-02-13T08:21:32.416Z,11.80
2023-02-13T08:23:58.955Z,12.32
2023-02-13T08:26:25.372Z,11.73
2023-02-13T08:28:51.805Z,12.65
2023-02-13T08:31:18.245Z,11.35
2023-02-13T08:33:44.721Z,12.90
2023-02-13T08:36:11.190Z,12.05
2023-02-13T08:38:37.609Z,11.50
2023-02-13T08:41:04.110Z,11.85
2023-02-13T08:43:30.510Z,11.25
2023-02-13T08:46:01.130Z,12.48
2023-02-13T08:48:27.915Z,11.32
2023-02-13T08:50:54.328Z,11.87
2023-02-13T08:53:20.693Z,11.65
2023-02-13T08:55:58.362Z,12.30
2023-02-13T08:58:25.045Z,12.75
2023-02-13T09:00:51.639Z,12.85
2023-02-13T09:03:18.483Z,12.47
2023-02-13T09:05:45.024Z,12.18
2023-02-13T09:08:13.596Z,12.65
2023-02-13T09:10:41.679Z,12.90
2023-02-13T09:13:08.090Z,13.38
2023-02-13T09:15:34.587Z,12.83
2023-02-13T09:18:01.195Z,13.60
2023-02-13T09:20:27.685Z,13.93
2023-02-13T09:22:55.615Z,14.10
2023-02-13T09:25:21.998Z,14.70
2023-02-13T09:27:48.414Z,14.97
2023-02-13T09:30:23.017Z,15.07
2023-02-13T09:32:51.487Z,14.10
2023-02-13T09:35:18.676Z,14.13
2023-02-13T09:37:48.194Z,15.57
2023-02-13T09:40:20.781Z,14.37
2023-02-13T09:42:48.649Z,14.85
2023-02-13T09:45:17.266Z,13.80
2023-02-13T09:47:44.849Z,14.55
2023-02-13T09:50:31.405Z,15.30
2023-02-13T09:52:59.291Z,15.27
2023-02-13T09:55:52.885Z,14.10
2023-02-13T09:58:32.930Z,14.32
2023-02-13T10:01:03.474Z,14.15
2023-02-13T10:03:34.852Z,14.38
2023-02-13T10:06:17.869Z,14.23
2023-02-13T10:08:53.204Z,15.07
2023-02-13T10:11:45.270Z,14.68
2023-02-13T10:14:52.840Z,14.88
2023-02-13T10:17:39.262Z,15.13
2023-02-13T10:20:18.139Z,15.60
2023-02-13T10:22:49.665Z,14.35
2023-02-13T10:25:24.114Z,14.10
2023-02-13T10:27:57.108Z,14.13
2023-02-13T10:30:28.418Z,14.23
2023-02-13T10:33:19.617Z,14.73
2023-02-13T10:36:00.982Z,14.45
2023-02-13T10:38:31.436Z,14.60
2023-02-13T10:41:16.422Z,14.38
2023-02-13T10:44:19.078Z,15.18
2023-02-13T10:47:14.951Z,13.93
2023-02-13T10:50:19.518Z,13.55
2023-02-13T10:53:12.948Z,13.48
2023-02-13T10:56:10.382Z,14.30
2023-02-13T10:58:42.858Z,13.70
2023-02-13T11:01:32.077Z,14.23
2023-02-13T11:04:09.347Z,14.43
2023-02-13T11:06:38.028Z,13.13
2023-02-13T11:09:07.223Z,13.63
2023-02-13T11:11:43.943Z,14.68
2023-02-13T11:14:26.922Z,12.80
2023-02-13T11:17:02.970Z,13.57
2023-02-13T11:19:35.148Z,12.90
2023-02-13T11:22:08.651Z,12.52
2023-02-13T11:24:36.569Z,12.55
2023-02-13T11:27:12.862Z,13.23
2023-02-13T11:29:57.551Z,13.00
2023-02-13T11:32:25.788Z,13.70
2023-02-13T11:34:54.626Z,12.55
2023-02-13T11:37:28.253Z,13.38
2023-02-13T11:40:00.159Z,12.93
2023-02-13T11:42:31.374Z,13.45
2023-02-13T11:45:04.023Z,13.80
2023-02-13T11:47:39.254Z,12.68
2023-02-13T11:50:27.825Z,13.30
2023-02-13T11:52:58.266Z,13.33
2023-02-13T11:55:36.067Z,13.85
2023-02-13T11:58:21.494Z,13.85
2023-02-13T12:00:48.068Z,12.77
2023-02-13T12:03:29.361Z,13.65
2023-02-13T12:06:13.797Z,13.93
2023-02-13T12:08:45.996Z,12.90
2023-02-13T12:11:30.131Z,14.05
2023-02-13T12:13:57.442Z,12.98
2023-02-13T12:16:33.959Z,14.73
2023-02-13T12:19:04.912Z,13.97
2023-02-13T12:22:09.282Z,14.43
2023-02-13T12:25:04.865Z,13.48
2023-02-13T12:27:57.601Z,13.00
2023-02-13T12:30:48.807Z,13.38
2023-02-13T12:33:24.017Z,12.93
2023-02-13T12:36:10.433Z,13.20
2023-02-13T12:38:42.702Z,12.88
2023-02-13T12:41:24.961Z,13.32
2023-02-13T12:44:11.646Z,13.15
2023-02-13T12:46:52.878Z,12.93
2023-02-13T12:49:25.043Z,13.95
2023-02-13T12:52:25.550Z,12.32
2023-02-13T12:55:18.052Z,12.05
2023-02-13T12:58:12.305Z,13.07
2023-02-13T13:00:48.344Z,13.30
2023-02-13T13:03:28.693Z,12.60
2023-02-13T13:06:22.550Z,12.25
2023-02-13T13:09:15.961Z,12.93
2023-02-13T13:12:03.399Z,12.30
2023-02-13T13:14:44.319Z,13.00
2023-02-13T13:17:22.893Z,12.63
2023-02-13T13:19:55.313Z,12.82
2023-02-13T13:22:42.178Z,12.40
2023-02-13T13:25:26.282Z,12.63
2023-02-13T13:27:57.656Z,11.97
2023-02-13T13:30:30.405Z,12.27
2023-02-13T13:33:04.856Z,13.07
2023-02-13T13:35:32.933Z,12.75
2023-02-13T13:38:06.421Z,13.18
2023-02-13T13:41:01.844Z,13.30
2023-02-13T13:43:40.540Z,12.60
2023-02-13T13:46:18.013Z,12.68
2023-02-13T13:48:50.153Z,12.85
2023-02-13T13:51:19.006Z,12.18
2023-02-13T13:54:00.676Z,13.17
2023-02-13T13:56:47.505Z,12.45
2023-02-13T13:59:18.516Z,12.40
2023-02-13T14:01:44.978Z,12.90
2023-02-13T14:04:38.298Z,14.00
2023-02-13T14:07:04.599Z,13.03
2023-02-13T14:09:38.877Z,13.80
2023-02-13T14:12:30.131Z,14.25
2023-02-13T14:14:58.460Z,12.98
2023-02-13T14:17:46.511Z,14.40
2023-02-13T14:20:22.999Z,14.13
2023-02-13T14:22:49.444Z,13.75
2023-02-13T14:25:24.756Z,13.73
2023-02-13T14:28:03.463Z,13.55
2023-02-13T14:30:34.256Z,14.20
2023-02-13T14:33:05.955Z,14.10
2023-02-13T14:35:34.971Z,14.88
2023-02-13T14:38:04.701Z,14.52
2023-02-13T14:40:50.514Z,14.10
2023-02-13T14:43:21.894Z,13.95
2023-02-13T14:45:56.349Z,14.23
2023-02-13T14:48:34.519Z,14.38
2023-02-13T14:51:01.871Z,13.45
2023-02-13T14:53:46.456Z,14.07
2023-02-13T14:56:15.116Z,15.38
2023-02-13T14:58:49.969Z,14.07
2023-02-13T15:01:42.432Z,15.35
2023-02-13T15:04:17.602Z,14.45
2023-02-13T15:06:45.900Z,14.10
2023-02-13T15:09:23.241Z,14.63
2023-02-13T15:11:49.955Z,14.47
2023-02-13T15:14:33.245Z,14.13
2023-02-13T15:17:06.261Z,13.98
2023-02-13T15:19:35.875Z,14.35
2023-02-13T15:22:03.953Z,15.52
2023-02-13T15:24:37.630Z,15.27
2023-02-13T15:27:06.523Z,14.68
2023-02-13T15:29:47.827Z,14.38
2023-02-13T15:32:25.372Z,14.52
2023-02-13T15:34:51.744Z,15.10
2023-02-13T15:37:28.530Z,15.23
2023-02-13T15:39:54.915Z,14.82
2023-02-13T15:42:21.784Z,14.40
2023-02-13T15:44:50.920Z,15.88
2023-02-13T15:47:25.498Z,15.88
2023-02-13T15:49:52.218Z,16.73
2023-02-13T15:52:37.842Z,16.55
2023-02-13T15:55:04.597Z,17.05
2023-02-13T15:57:31.977Z,16.33
2023-02-13T16:00:00.264Z,16.77
2023-02-13T16:02:46.051Z,17.17
2023-02-13T16:05:14.760Z,16.70
2023-02-13T16:07:55.801Z,16.83
2023-02-13T16:10:28.318Z,17.20
2023-02-13T16:12:56.606Z,16.65
2023-02-13T16:15:27.899Z,16.90
2023-02-13T16:17:55.089Z,17.50
2023-02-13T16:20:25.900Z,16.92
2023-02-13T16:23:06.260Z,18.65
2023-02-13T16:25:39.391Z,17.77
2023-02-13T16:28:23.721Z,18.33
2023-02-13T16:31:00.794Z,17.23
2023-02-13T16:33:28.551Z,20.85
2023-02-13T16:36:00.757Z,32.13
2023-02-13T16:38:48.284Z,38.75
2023-02-13T16:41:17.661Z,39.77
2023-02-13T16:43:54.176Z,39.88
2023-02-13T16:46:29.114Z,32.55
2023-02-13T16:48:59.080Z,27.73
2023-02-13T16:51:37.626Z,24.58
2023-02-13T16:54:10.212Z,20.87
2023-02-13T16:56:47.671Z,19.77
2023-02-13T16:59:32.452Z,19.15
2023-02-13T17:02:21.860Z,17.85
2023-02-13T17:05:07.328Z,18.15
2023-02-13T17:07:36.334Z,18.67
2023-02-13T17:10:18.054Z,18.65
2023-02-13T17:12:45.483Z,18.30
2023-02-13T17:15:17.631Z,18.25
2023-02-13T17:17:45.723Z,18.65
2023-02-13T17:20:17.790Z,18.10
2023-02-13T17:22:46.401Z,18.83
2023-02-13T17:25:20.742Z,18.13
2023-02-13T17:27:47.941Z,20.13
2023-02-13T17:30:23.123Z,19.40
2023-02-13T17:32:53.674Z,19.23
2023-02-13T17:35:20.046Z,19.33
2023-02-13T17:37:46.423Z,19.27
2023-02-13T17:40:19.311Z,19.48
2023-02-13T17:42:47.510Z,19.25
2023-02-13T17:45:16.773Z,19.90
2023-02-13T17:47:43.152Z,19.38
2023-02-13T17:50:11.126Z,20.40
2023-02-13T17:52:39.061Z,21.17
2023-02-13T17:55:07.113Z,19.77
2023-02-13T17:57:33.736Z,19.80
2023-02-13T18:00:03.405Z,19.45
2023-02-13T18:02:29.782Z,19.83
2023-02-13T18:04:56.247Z,19.92
2023-02-13T18:07:22.623Z,19.58
2023-02-13T18:09:48.995Z,19.67
2023-02-13T18:12:18.869Z,21.50
2023-02-13T18:14:45.333Z,20.70
2023-02-13T18:17:12.117Z,22.05
2023-02-13T18:19:38.890Z,20.73
2023-02-13T18:22:07.773Z,23.33
2023-02-13T18:24:36.101Z,20.75
2023-02-13T18:27:03.365Z,21.67
2023-02-13T18:29:29.860Z,20.77
2023-02-13T18:31:56.824Z,22.17
2023-02-13T18:34:24.790Z,21.63
2023-02-13T18:36:51.170Z,21.40
2023-02-13T18:39:17.829Z,21.08
2023-02-13T18:41:44.496Z,21.88
2023-02-13T18:44:17.331Z,22.48
2023-02-13T18:46:49.887Z,23.27
2023-02-13T18:49:16.529Z,24.90
2023-02-13T18:51:44.335Z,26.38
2023-02-13T18:54:11.299Z,25.13
2023-02-13T18:56:37.756Z,26.63
2023-02-13T18:59:04.219Z,24.27
2023-02-13T19:01:30.660Z,25.63
2023-02-13T19:03:57.088Z,26.75
2023-02-13T19:06:24.959Z,25.92
2023-02-13T19:08:51.775Z,26.73
2023-02-13T19:11:21.476Z,26.47
2023-02-13T19:13:47.884Z,27.38
2023-02-13T19:16:17.564Z,29.40
2023-02-13T19:18:47.333Z,29.02
2023-02-13T19:21:14.852Z,28.77
2023-02-13T19:23:41.814Z,28.43
2023-02-13T19:26:13.901Z,28.33
2023-02-13T19:28:40.681Z,29.65
2023-02-13T19:31:14.948Z,31.02
2023-02-13T19:33:42.092Z,31.20
2023-02-13T19:36:11.924Z,31.07
2023-02-13T19:38:41.107Z,32.90
2023-02-13T19:41:10.300Z,33.03
2023-02-13T19:43:37.163Z,40.08
2023-02-13T19:46:10.063Z,40.28
2023-02-13T19:48:37.609Z,37.10
2023-02-13T19:51:12.997Z,34.90
2023-02-13T19:53:39.452Z,33.50
2023-02-13T19:56:07.620Z,33.67
2023-02-13T19:58:37.559Z,33.78
2023-02-13T20:01:19.351Z,32.63
2023-02-13T20:03:46.703Z,34.13
2023-02-13T20:06:25.838Z,34.20
2023-02-13T20:08:52.655Z,31.08
2023-02-13T20:11:21.133Z,31.67
2023-02-13T20:13:48.545Z,30.10
2023-02-13T20:16:16.564Z,30.40
2023-02-13T20:18:43.406Z,30.25
2023-02-13T20:21:12.869Z,30.30
2023-02-13T20:23:39.847Z,30.15
2023-02-13T20:26:08.598Z,28.83
2023-02-13T20:28:35.006Z,29.42
2023-02-13T20:31:03.803Z,30.05
2023-02-13T20:33:30.622Z,29.30
2023-02-13T20:35:57.011Z,27.85
2023-02-13T20:38:23.427Z,28.27
2023-02-13T20:40:49.798Z,26.05
2023-02-13T20:43:16.156Z,26.13
2023-02-13T20:45:42.548Z,26.75
2023-02-13T20:48:09.001Z,26.30
2023-02-13T20:50:35.393Z,27.43
2023-02-13T20:53:01.788Z,26.45
2023-02-13T20:55:28.151Z,25.35
2023-02-13T20:57:54.534Z,29.80
2023-02-13T21:00:21.197Z,28.27
2023-02-13T21:02:47.583Z,27.93
2023-02-13T21:05:13.987Z,26.88
2023-02-13T21:07:40.583Z,27.42
2023-02-13T21:10:07.456Z,27.48
2023-02-13T21:12:34.851Z,28.67
2023-02-13T21:15:01.230Z,28.07
2023-02-13T21:17:27.567Z,28.30
2023-02-13T21:19:53.948Z,28.02
2023-02-13T21:22:20.314Z,28.45
2023-02-13T21:24:49.624Z,26.55
2023-02-13T21:27:15.995Z,28.07
2023-02-13T21:29:42.362Z,27.50
2023-02-13T21:32:08.849Z,26.67
2023-02-13T21:34:35.308Z,26.67
2023-02-13T21:37:02.154Z,27.95
2023-02-13T21:39:28.620Z,27.37
2023-02-13T21:41:55.030Z,27.35
2023-02-13T21:44:21.683Z,27.10
2023-02-13T21:46:48.172Z,27.33
2023-02-13T21:49:17.690Z,29.90
2023-02-13T21:51:44.894Z,29.27
2023-02-13T21:54:11.800Z,28.92
2023-02-13T21:56:40.447Z,30.17
2023-02-13T21:59:06.881Z,28.45
2023-02-13T22:01:35.789Z,27.45
2023-02-13T22:04:04.602Z,28.63
2023-02-13T22:06:33.586Z,26.95
2023-02-13T22:09:02.978Z,27.27
2023-02-13T22:11:29.983Z,25.67
2023-02-13T22:14:00.085Z,24.65
2023-02-13T22:16:26.669Z,23.33
2023-02-13T22:18:53.170Z,22.20
2023-02-13T22:21:22.105Z,21.60
2023-02-13T22:23:49.881Z,21.83
2023-02-13T22:26:18.398Z,21.05
2023-02-13T22:28:45.137Z,20.40
2023-02-13T22:31:12.900Z,21.50
2023-02-13T22:33:39.804Z,20.95
2023-02-13T22:36:06.846Z,20.58
2023-02-13T22:38:34.882Z,19.90
2023-02-13T22:41:12.749Z,19.70
2023-02-13T22:43:39.609Z,18.63
2023-02-13T22:46:13.007Z,18.52
2023-02-13T22:48:40.361Z,18.30
2023-02-13T22:51:11.614Z,17.55
2023-02-13T22:53:38.170Z,17.80
2023-02-13T22:56:06.063Z,18.30
2023-02-13T22:58:32.443Z,18.30
2023-02-13T23:00:59.634Z,18.35
2023-02-13T23:03:26.438Z,18.88
2023-02-13T23:05:53.378Z,17.57
2023-02-13T23:08:19.948Z,16.45
2023-02-13T23:11:06.294Z,16.70
2023-02-13T23:13:32.706Z,16.70
2023-02-13T23:15:59.140Z,16.75
2023-02-13T23:18:25.514Z,16.80
2023-02-13T23:20:51.899Z,16.60
2023-02-13T23:23:18.284Z,15.02
2023-02-13T23:25:44.676Z,15.15
2023-02-13T23:28:11.099Z,15.20
2023-02-13T23:30:37.447Z,15.30
2023-02-13T23:33:03.950Z,16.00
2023-02-13T23:35:30.383Z,15.70
2023-02-13T23:37:56.723Z,15.07
2023-02-13T23:40:23.133Z,16.10
2023-02-13T23:42:49.522Z,16.47
2023-02-13T23:45:15.979Z,17.00
2023-02-13T23:47:42.334Z,16.58
2023-02-13T23:50:09.348Z,18.00
2023-02-13T23:52:35.838Z,16.65
2023-02-13T23:55:02.501Z,16.70
2023-02-13T23:57:29.285Z,16.50
2023-02-13T23:59:55.665Z,15.98
